Time;durP1;ratioP1;P1;durP2;ratioP2;P2;SDS_P1;SDS_P2;PMS_P1;PMS_P2;Temp;Humidity;BMP_temperature;BMP_pressure;BME280_temperature;BME280_humidity;BME280_pressure;Samples;Min_cycle;Max_cycle;Signal;HPM_P1;HPM_P2
2023/09/05 00:02:21;;;;;;;248.43;236.18;;;;;;;;;;5037063;28;20120;-68
2023/09/05 00:04:47;;;;;;;250.48;238.02;;;;;;;;;;5021330;28;20140;-68
2023/09/05 00:07:13;;;;;;;262.58;249.43;;;;;;;;;;5039203;28;20048;-68
2023/09/05 00:09:38;;;;;;;255.43;242.82;;;;;;;;;;5038417;28;20041;-70
2023/09/05 00:12:04;;;;;;;251.98;239.50;;;;;;;;;;5040293;28;20037;-70
2023/09/05 00:14:29;;;;;;;268.15;254.80;;;;;;;;;;5038414;28;20455;-71
2023/09/05 00:16:55;;;;;;;287.08;272.63;;;;;;;;;;5022480;28;20076;-71
2023/09/05 00:19:20;;;;;;;274.30;260.58;;;;;;;;;;5042110;28;20124;-70
2023/09/05 00:21:45;;;;;;;282.33;268.02;;;;;;;;;;5037665;28;20060;-70
2023/09/05 00:24:31;;;;;;;217.68;206.98;;;;;;;;;;5020295;28;20060;-71
2023/09/05 00:27:01;;;;;;;237.70;225.98;;;;;;;;;;5026830;28;20040;-71
2023/09/05 00:29:27;;;;;;;238.75;226.88;;;;;;;;;;5038146;28;20045;-72
2023/09/05 00:31:54;;;;;;;246.27;234.02;;;;;;;;;;5037150;28;20420;-71
2023/09/05 00:34:19;;;;;;;275.75;261.85;;;;;;;;;;5040746;28;20470;-67
2023/09/05 00:36:47;;;;;;;276.02;262.20;;;;;;;;;;5042976;28;20064;-68
2023/09/05 00:39:13;;;;;;;268.27;254.75;;;;;;;;;;5058753;28;20021;-71
2023/09/05 00:41:38;;;;;;;224.48;213.20;;;;;;;;;;5011842;28;20036;-70
2023/09/05 00:44:05;;;;;;;220.82;209.80;;;;;;;;;;5040836;28;20031;-70
2023/09/05 00:46:32;;;;;;;216.73;205.93;;;;;;;;;;5043101;28;20467;-71
2023/09/05 00:48:58;;;;;;;193.90;184.30;;;;;;;;;;5041358;28;20094;-71
2023/09/05 00:51:25;;;;;;;211.98;201.35;;;;;;;;;;5043670;28;20029;-68
2023/09/05 00:53:51;;;;;;;195.25;185.55;;;;;;;;;;5040590;28;20061;-67
2023/09/05 00:56:17;;;;;;;187.02;177.73;;;;;;;;;;5043975;28;20037;-68
2023/09/05 00:58:42;;;;;;;175.98;167.18;;;;;;;;;;5024764;28;20584;-67
2023/09/05 01:01:07;;;;;;;184.38;175.07;;;;;;;;;;5039071;28;20124;-71
2023/09/05 01:03:33;;;;;;;170.20;161.65;;;;;;;;;;5041285;28;20059;-67
2023/09/05 01:06:06;;;;;;;199.57;189.57;;;;;;;;;;5039014;28;20388;-68
2023/09/05 01:08:41;;;;;;;214.55;203.73;;;;;;;;;;5041485;28;20091;-68
2023/09/05 01:11:11;;;;;;;182.65;173.40;;;;;;;;;;5039095;28;20035;-68
2023/09/05 01:13:37;;;;;;;182.70;173.43;;;;;;;;;;5042328;28;20112;-70
2023/09/05 01:16:03;;;;;;;130.45;123.80;;;;;;;;;;5039992;28;20095;-71
2023/09/05 01:18:33;;;;;;;134.45;127.68;;;;;;;;;;5039057;28;20032;-68
2023/09/05 01:21:07;;;;;;;133.85;127.13;;;;;;;;;;5025998;28;20112;-70
2023/09/05 01:23:42;;;;;;;137.75;130.75;;;;;;;;;;5040245;28;20072;-68
2023/09/05 01:26:08;;;;;;;131.30;124.60;;;;;;;;;;5021876;28;20129;-68
2023/09/05 01:28:36;;;;;;;127.35;120.90;;;;;;;;;;5022854;28;20479;-68
2023/09/05 01:31:01;;;;;;;103.97;98.63;;;;;;;;;;5027133;28;20037;-68
2023/09/05 01:33:27;;;;;;;109.35;103.78;;;;;;;;;;5034448;28;20068;-70
2023/09/05 01:35:53;;;;;;;104.18;98.93;;;;;;;;;;5038266;28;20704;-71
2023/09/05 01:38:18;;;;;;;95.35;90.50;;;;;;;;;;5040532;28;20032;-70
2023/09/05 01:40:44;;;;;;;82.85;78.65;;;;;;;;;;5038912;28;20088;-68
2023/09/05 01:43:09;;;;;;;73.40;69.60;;;;;;;;;;5038635;28;20041;-70
2023/09/05 01:45:34;;;;;;;87.97;83.35;;;;;;;;;;5041770;28;20075;-67
2023/09/05 01:48:01;;;;;;;81.88;77.57;;;;;;;;;;5039366;28;20037;-68
2023/09/05 01:50:31;;;;;;;72.03;68.30;;;;;;;;;;5025750;28;20044;-68
2023/09/05 01:52:56;;;;;;;58.28;55.30;;;;;;;;;;5052112;28;20048;-68
2023/09/05 01:55:22;;;;;;;62.92;59.72;;;;;;;;;;5039136;28;20026;-68
2023/09/05 01:57:47;;;;;;;65.13;61.75;;;;;;;;;;5039621;28;20154;-68
2023/09/05 02:00:13;;;;;;;63.22;59.97;;;;;;;;;;5042292;28;20395;-71
2023/09/05 02:02:38;;;;;;;51.28;48.60;;;;;;;;;;5037957;28;20082;-71
2023/09/05 02:05:04;;;;;;;61.13;57.97;;;;;;;;;;5040234;28;20029;-71
2023/09/05 02:07:29;;;;;;;51.88;49.15;;;;;;;;;;5040782;28;20037;-68
2023/09/05 02:09:55;;;;;;;43.28;41.03;;;;;;;;;;5036938;28;20056;-68
2023/09/05 02:12:20;;;;;;;40.05;37.92;;;;;;;;;;5037544;28;20041;-67
2023/09/05 02:14:47;;;;;;;36.50;34.53;;;;;;;;;;5038462;28;20041;-67
2023/09/05 02:17:15;;;;;;;25.05;23.70;;;;;;;;;;5042005;28;20041;-68
2023/09/05 02:19:41;;;;;;;26.55;25.15;;;;;;;;;;5041424;28;20059;-68
2023/09/05 02:22:06;;;;;;;25.48;24.15;;;;;;;;;;5039090;28;20428;-70
2023/09/05 02:24:32;;;;;;;27.80;26.27;;;;;;;;;;5042123;28;20029;-68
2023/09/05 02:26:57;;;;;;;27.23;25.77;;;;;;;;;;5039768;28;20032;-70
2023/09/05 02:29:25;;;;;;;23.83;22.50;;;;;;;;;;5037193;28;20047;-67
2023/09/05 02:31:51;;;;;;;23.13;21.88;;;;;;;;;;5041336;28;20463;-70
2023/09/05 02:34:16;;;;;;;26.92;25.42;;;;;;;;;;5021779;28;20029;-68
2023/09/05 02:36:41;;;;;;;31.85;30.08;;;;;;;;;;5040541;28;20044;-68
2023/09/05 02:39:07;;;;;;;27.45;26.00;;;;;;;;;;5038433;28;20030;-68
2023/09/05 02:41:32;;;;;;;24.95;23.60;;;;;;;;;;5040460;28;20526;-68
2023/09/05 02:43:57;;;;;;;25.67;24.30;;;;;;;;;;5041471;28;20032;-68
2023/09/05 02:46:23;;;;;;;25.67;24.30;;;;;;;;;;5039456;28;20072;-70
2023/09/05 02:48:49;;;;;;;23.48;22.15;;;;;;;;;;5040569;28;20034;-68
2023/09/05 02:51:14;;;;;;;22.52;21.23;;;;;;;;;;5041918;28;20500;-68
2023/09/05 02:53:40;;;;;;;20.70;19.35;;;;;;;;;;5055510;28;20107;-68
2023/09/05 02:56:06;;;;;;;21.42;20.25;;;;;;;;;;5020298;28;20033;-68
2023/09/05 02:58:32;;;;;;;21.83;20.63;;;;;;;;;;5038612;28;20041;-70
2023/09/05 03:01:03;;;;;;;19.52;18.48;;;;;;;;;;5019754;28;20487;-71
2023/09/05 03:03:29;;;;;;;19.05;18.00;;;;;;;;;;5041414;28;20041;-69
2023/09/05 03:05:54;;;;;;;20.17;19.05;;;;;;;;;;5023739;28;20547;-68
2023/09/05 03:08:20;;;;;;;28.73;27.17;;;;;;;;;;5041872;28;20143;-68
2023/09/05 03:10:52;;;;;;;27.67;26.20;;;;;;;;;;5037269;28;20092;-68
2023/09/05 03:13:19;;;;;;;25.60;24.25;;;;;;;;;;5038136;28;20033;-68
2023/09/05 03:15:44;;;;;;;24.98;23.63;;;;;;;;;;5039487;28;20691;-71
2023/09/05 03:18:10;;;;;;;25.70;24.35;;;;;;;;;;5034346;28;20076;-70
2023/09/05 03:20:35;;;;;;;25.83;24.45;;;;;;;;;;5038450;28;20029;-68
2023/09/05 03:23:00;;;;;;;27.75;26.25;;;;;;;;;;5036157;28;20042;-71
2023/09/05 03:25:26;;;;;;;26.58;25.17;;;;;;;;;;5040026;28;20044;-69
2023/09/05 03:27:51;;;;;;;30.15;28.45;;;;;;;;;;5037170;28;20044;-69
2023/09/05 03:30:16;;;;;;;26.75;25.33;;;;;;;;;;5038539;28;20460;-70
2023/09/05 03:32:42;;;;;;;28.13;26.25;;;;;;;;;;5036315;28;20052;-71
2023/09/05 03:35:08;;;;;;;28.73;27.20;;;;;;;;;;5042625;28;20029;-68
2023/09/05 03:37:33;;;;;;;28.58;27.05;;;;;;;;;;5040044;28;20037;-68
2023/09/05 03:39:58;;;;;;;30.20;28.55;;;;;;;;;;5036355;28;20037;-70
2023/09/05 03:42:24;;;;;;;29.05;27.55;;;;;;;;;;5038222;28;20075;-68
2023/09/05 03:44:49;;;;;;;29.10;27.58;;;;;;;;;;5035347;28;20372;-70
2023/09/05 03:47:14;;;;;;;28.23;26.73;;;;;;;;;;5042753;28;20116;-70
2023/09/05 03:49:40;;;;;;;31.48;29.50;;;;;;;;;;5036857;28;20040;-70
2023/09/05 03:52:05;;;;;;;30.05;28.45;;;;;;;;;;5038175;28;20033;-70
2023/09/05 03:54:31;;;;;;;29.67;28.08;;;;;;;;;;5024368;28;20044;-70
2023/09/05 03:56:56;;;;;;;30.23;28.52;;;;;;;;;;5036440;28;20041;-67
2023/09/05 03:59:21;;;;;;;30.05;28.45;;;;;;;;;;5037554;28;20044;-68
2023/09/05 04:01:49;;;;;;;28.83;27.30;;;;;;;;;;5039544;28;20029;-68
2023/09/05 04:04:14;;;;;;;29.63;27.92;;;;;;;;;;5038430;28;20029;-68
2023/09/05 04:06:40;;;;;;;28.90;27.33;;;;;;;;;;5039733;28;20043;-68
2023/09/05 04:09:05;;;;;;;30.27;28.67;;;;;;;;;;5040263;28;20044;-68
2023/09/05 04:11:30;;;;;;;26.52;25.13;;;;;;;;;;5044005;28;20091;-68
2023/09/05 04:13:56;;;;;;;29.67;28.17;;;;;;;;;;5039932;28;20044;-68
2023/09/05 04:16:21;;;;;;;27.75;26.30;;;;;;;;;;5042663;28;20126;-70
2023/09/05 04:18:46;;;;;;;28.50;27.00;;;;;;;;;;5044033;28;20061;-68
2023/09/05 04:21:12;;;;;;;25.90;24.50;;;;;;;;;;5040974;28;20037;-68
2023/09/05 04:23:37;;;;;;;27.05;25.55;;;;;;;;;;5042012;28;20036;-70
2023/09/05 04:26:02;;;;;;;25.70;24.33;;;;;;;;;;5043819;28;20051;-70
2023/09/05 04:28:29;;;;;;;27.17;25.77;;;;;;;;;;5040806;28;20548;-70
2023/09/05 04:30:55;;;;;;;24.98;23.63;;;;;;;;;;5043641;28;20041;-70
2023/09/05 04:33:27;;;;;;;23.85;22.55;;;;;;;;;;5039922;28;20364;-70
2023/09/05 04:35:52;;;;;;;23.45;22.15;;;;;;;;;;5041364;28;20333;-68
2023/09/05 04:38:17;;;;;;;23.48;22.17;;;;;;;;;;5041488;28;20107;-70
2023/09/05 04:40:43;;;;;;;22.63;21.33;;;;;;;;;;5043685;28;20033;-70
2023/09/05 04:43:08;;;;;;;23.35;22.10;;;;;;;;;;5042371;28;20048;-70
2023/09/05 04:45:33;;;;;;;24.63;23.33;;;;;;;;;;5039730;28;20034;-70
2023/09/05 04:47:59;;;;;;;21.42;20.27;;;;;;;;;;5040857;28;21054;-68
2023/09/05 04:50:25;;;;;;;21.50;20.30;;;;;;;;;;5039724;28;20375;-70
2023/09/05 04:52:50;;;;;;;19.75;18.65;;;;;;;;;;5039319;28;20048;-69
2023/09/05 04:55:15;;;;;;;19.67;18.58;;;;;;;;;;5043455;28;20064;-70
2023/09/05 04:57:42;;;;;;;19.25;18.05;;;;;;;;;;5042326;28;20497;-70
2023/09/05 05:00:10;;;;;;;18.58;17.38;;;;;;;;;;5042353;28;20578;-68
2023/09/05 05:02:35;;;;;;;20.80;19.67;;;;;;;;;;5042527;28;20518;-69
2023/09/05 05:05:00;;;;;;;21.52;20.23;;;;;;;;;;5042399;28;20086;-70
2023/09/05 05:07:26;;;;;;;22.55;21.25;;;;;;;;;;5039200;28;20076;-70
2023/09/05 05:09:51;;;;;;;21.50;20.30;;;;;;;;;;5028190;28;20047;-68
2023/09/05 05:12:17;;;;;;;25.33;23.95;;;;;;;;;;5041581;28;20041;-69
2023/09/05 05:14:42;;;;;;;23.45;22.15;;;;;;;;;;5041841;28;20029;-68
2023/09/05 05:17:08;;;;;;;22.15;20.95;;;;;;;;;;5040276;28;20563;-68
2023/09/05 05:19:33;;;;;;;20.90;19.77;;;;;;;;;;5043865;28;20044;-71
2023/09/05 05:21:59;;;;;;;18.20;17.20;;;;;;;;;;5039010;28;20037;-70
2023/09/05 05:24:25;;;;;;;18.45;17.45;;;;;;;;;;5026444;28;20030;-73
2023/09/05 05:26:50;;;;;;;21.00;19.90;;;;;;;;;;5040671;28;20029;-68
2023/09/05 05:29:15;;;;;;;19.35;18.25;;;;;;;;;;5040556;28;20033;-72
2023/09/05 05:31:42;;;;;;;21.40;20.20;;;;;;;;;;5041454;28;20064;-68
2023/09/05 05:34:07;;;;;;;18.95;17.90;;;;;;;;;;5039995;28;20037;-68
2023/09/05 05:36:33;;;;;;;21.48;20.25;;;;;;;;;;5041730;28;20098;-70
2023/09/05 05:38:59;;;;;;;18.77;17.73;;;;;;;;;;5054529;28;20383;-70
2023/09/05 05:41:26;;;;;;;19.55;18.48;;;;;;;;;;5042429;28;20059;-71
2023/09/05 05:43:52;;;;;;;20.83;19.70;;;;;;;;;;5041322;28;20072;-68
2023/09/05 05:46:20;;;;;;;21.60;20.42;;;;;;;;;;5027608;28;20728;-68
2023/09/05 05:48:45;;;;;;;22.58;21.38;;;;;;;;;;5042626;28;20071;-70
2023/09/05 05:51:12;;;;;;;24.75;23.45;;;;;;;;;;5041416;28;20052;-68
2023/09/05 05:53:38;;;;;;;26.65;25.23;;;;;;;;;;5040596;28;20380;-68
2023/09/05 05:56:04;;;;;;;29.17;27.50;;;;;;;;;;5039566;28;20047;-68
2023/09/05 05:58:29;;;;;;;31.48;29.83;;;;;;;;;;5038458;28;20044;-67
2023/09/05 06:00:55;;;;;;;29.98;28.38;;;;;;;;;;5039732;28;20040;-68
2023/09/05 06:03:21;;;;;;;28.45;26.95;;;;;;;;;;5036596;28;20037;-68
2023/09/05 06:05:48;;;;;;;27.73;26.17;;;;;;;;;;5040870;28;20029;-68
2023/09/05 06:08:13;;;;;;;21.38;20.20;;;;;;;;;;5039984;28;20460;-71
2023/09/05 06:10:39;;;;;;;21.17;19.98;;;;;;;;;;5041769;28;20052;-67
2023/09/05 06:13:05;;;;;;;17.38;16.40;;;;;;;;;;5040461;28;20029;-71
2023/09/05 06:15:31;;;;;;;18.60;17.50;;;;;;;;;;5038952;28;20369;-67
2023/09/05 06:17:56;;;;;;;15.90;15.00;;;;;;;;;;5042139;28;20029;-68
2023/09/05 06:20:22;;;;;;;15.80;14.88;;;;;;;;;;5031651;28;20037;-67
2023/09/05 06:22:47;;;;;;;12.98;12.18;;;;;;;;;;5039002;28;20060;-66
2023/09/05 06:25:13;;;;;;;12.40;11.65;;;;;;;;;;5038153;28;20033;-72
2023/09/05 06:27:43;;;;;;;13.75;12.95;;;;;;;;;;5038625;28;20048;-71
2023/09/05 06:30:11;;;;;;;14.75;13.85;;;;;;;;;;5040059;28;20033;-71
2023/09/05 06:32:37;;;;;;;16.70;15.70;;;;;;;;;;5039921;28;20475;-66
2023/09/05 06:35:05;;;;;;;17.48;16.48;;;;;;;;;;5039495;28;20060;-67
2023/09/05 06:37:32;;;;;;;18.25;17.15;;;;;;;;;;5041308;28;20108;-66
2023/09/05 06:39:58;;;;;;;19.77;18.67;;;;;;;;;;5037782;28;20021;-70
2023/09/05 06:42:23;;;;;;;24.95;23.60;;;;;;;;;;5031180;28;20435;-65
2023/09/05 06:44:49;;;;;;;25.30;23.95;;;;;;;;;;5036936;28;20057;-70
2023/09/05 06:47:14;;;;;;;30.10;28.52;;;;;;;;;;5041030;28;20661;-70
2023/09/05 06:49:40;;;;;;;28.27;26.77;;;;;;;;;;5039819;28;20352;-70
2023/09/05 06:52:05;;;;;;;37.22;35.13;;;;;;;;;;5038831;28;20041;-70
2023/09/05 06:54:31;;;;;;;53.75;50.97;;;;;;;;;;5039426;28;20104;-66
2023/09/05 06:56:57;;;;;;;51.22;48.53;;;;;;;;;;5040308;28;20396;-71
2023/09/05 06:59:22;;;;;;;55.88;53.03;;;;;;;;;;5039468;28;20051;-70
2023/09/05 07:01:47;;;;;;;56.72;53.80;;;;;;;;;;5040178;28;20051;-65
2023/09/05 07:04:13;;;;;;;56.30;53.47;;;;;;;;;;5041876;28;20454;-65
2023/09/05 07:06:42;;;;;;;61.50;56.03;;;;;;;;;;5054778;28;20072;-66
2023/09/05 07:09:07;;;;;;;76.85;73.03;;;;;;;;;;5041012;28;20043;-70
2023/09/05 07:11:33;;;;;;;75.07;71.35;;;;;;;;;;5040739;28;20037;-71
2023/09/05 07:13:59;;;;;;;62.10;58.88;;;;;;;;;;5021966;28;20033;-65
2023/09/05 07:16:24;;;;;;;45.20;42.83;;;;;;;;;;5038133;28;20521;-71
2023/09/05 07:18:50;;;;;;;44.42;42.17;;;;;;;;;;5041167;28;20040;-66
2023/09/05 07:21:15;;;;;;;45.95;43.53;;;;;;;;;;5038933;28;20033;-70
2023/09/05 07:23:41;;;;;;;41.15;39.03;;;;;;;;;;5038127;28;20025;-65
2023/09/05 07:26:07;;;;;;;41.58;39.38;;;;;;;;;;5039485;28;20469;-70
2023/09/05 07:28:33;;;;;;;38.83;36.85;;;;;;;;;;5038915;28;20037;-70
2023/09/05 07:30:59;;;;;;;39.45;37.40;;;;;;;;;;5036792;28;20097;-70
2023/09/05 07:33:25;;;;;;;38.97;36.97;;;;;;;;;;5039498;28;20033;-70
2023/09/05 07:35:50;;;;;;;40.47;38.30;;;;;;;;;;5041892;28;20059;-65
2023/09/05 07:38:17;;;;;;;39.80;37.70;;;;;;;;;;5041677;28;20120;-66
2023/09/05 07:40:43;;;;;;;42.08;39.92;;;;;;;;;;5022720;28;20030;-70
2023/09/05 07:43:08;;;;;;;38.58;36.60;;;;;;;;;;5041321;28;20450;-70
2023/09/05 07:45:34;;;;;;;39.40;37.30;;;;;;;;;;5041014;28;20029;-70
2023/09/05 07:47:59;;;;;;;36.65;34.33;;;;;;;;;;5039903;28;20032;-65
2023/09/05 07:50:24;;;;;;;36.53;34.63;;;;;;;;;;5042437;28;20041;-70
2023/09/05 07:52:50;;;;;;;35.00;33.20;;;;;;;;;;5041017;28;20083;-70
2023/09/05 07:55:16;;;;;;;42.15;40.00;;;;;;;;;;5044905;28;20025;-71
2023/09/05 07:57:42;;;;;;;57.60;54.67;;;;;;;;;;5045272;28;20048;-70
2023/09/05 08:00:15;;;;;;;34.03;32.25;;;;;;;;;;5042461;28;20032;-66
2023/09/05 08:02:41;;;;;;;57.40;54.55;;;;;;;;;;5038106;28;20395;-70
2023/09/05 08:05:07;;;;;;;85.47;81.28;;;;;;;;;;5040670;28;20330;-65
2023/09/05 08:07:33;;;;;;;69.03;65.60;;;;;;;;;;5043972;28;20064;-63
2023/09/05 08:10:00;;;;;;;47.03;44.63;;;;;;;;;;5041781;28;20080;-65
2023/09/05 08:12:26;;;;;;;114.88;109.20;;;;;;;;;;5039180;28;20029;-64
2023/09/05 08:14:51;;;;;;;34.00;32.22;;;;;;;;;;5041373;28;20047;-70
2023/09/05 08:17:17;;;;;;;64.47;61.25;;;;;;;;;;5040472;28;20050;-64
2023/09/05 08:19:44;;;;;;;179.05;170.40;;;;;;;;;;5026087;28;20052;-70
2023/09/05 08:22:12;;;;;;;188.32;179.25;;;;;;;;;;5038405;28;20039;-70
2023/09/05 08:24:37;;;;;;;168.98;160.73;;;;;;;;;;5053006;28;20021;-64
2023/09/05 08:27:05;;;;;;;203.70;193.85;;;;;;;;;;5041326;28;20092;-66
2023/09/05 08:29:31;;;;;;;154.18;146.13;;;;;;;;;;5037297;28;20045;-64
2023/09/05 08:31:58;;;;;;;184.95;175.98;;;;;;;;;;5044011;28;20036;-71
2023/09/05 08:34:23;;;;;;;220.38;209.73;;;;;;;;;;5026454;28;20034;-70
2023/09/05 08:36:49;;;;;;;224.18;213.40;;;;;;;;;;5028478;28;20030;-70
2023/09/05 08:39:14;;;;;;;251.57;239.48;;;;;;;;;;5042470;28;20036;-63
2023/09/05 08:41:40;;;;;;;256.55;244.23;;;;;;;;;;5043301;28;20048;-70
2023/09/05 08:44:05;;;;;;;224.40;213.60;;;;;;;;;;5040855;28;20055;-70
2023/09/05 08:46:31;;;;;;;169.38;161.10;;;;;;;;;;5038999;28;20044;-71
2023/09/05 08:48:56;;;;;;;109.95;103.78;;;;;;;;;;5046043;28;20100;-71
2023/09/05 08:51:29;;;;;;;239.35;227.75;;;;;;;;;;5040509;28;20033;-70
2023/09/05 08:53:59;;;;;;;276.55;263.30;;;;;;;;;;5040485;28;20045;-70
2023/09/05 08:56:25;;;;;;;140.70;133.77;;;;;;;;;;5042391;28;20029;-70
2023/09/05 08:58:55;;;;;;;75.88;72.10;;;;;;;;;;5041834;28;20040;-71
2023/09/05 09:01:20;;;;;;;65.88;62.58;;;;;;;;;;5025709;28;20044;-65
2023/09/05 09:03:46;;;;;;;103.40;98.30;;;;;;;;;;5037397;28;20030;-65
2023/09/05 09:06:12;;;;;;;74.15;70.43;;;;;;;;;;5037287;28;20367;-70
2023/09/05 09:08:42;;;;;;;96.72;91.90;;;;;;;;;;5041364;28;20132;-69
2023/09/05 09:11:08;;;;;;;94.15;89.47;;;;;;;;;;5042196;28;20214;-65
2023/09/05 09:13:35;;;;;;;75.50;71.78;;;;;;;;;;5041212;28;20048;-64
2023/09/05 09:16:00;;;;;;;166.02;157.82;;;;;;;;;;5041365;28;20045;-65
2023/09/05 09:18:26;;;;;;;56.80;53.92;;;;;;;;;;5038737;28;20091;-64
2023/09/05 09:20:52;;;;;;;48.45;46.00;;;;;;;;;;5041234;28;20025;-65
2023/09/05 09:23:29;;;;;;;50.78;48.22;;;;;;;;;;5040244;28;20104;-65
2023/09/05 09:25:57;;;;;;;48.80;46.35;;;;;;;;;;5038773;28;20045;-65
2023/09/05 09:28:28;;;;;;;47.42;45.00;;;;;;;;;;5025652;28;20041;-65
2023/09/05 09:31:15;;;;;;;54.88;52.08;;;;;;;;;;5039438;28;20041;-65
2023/09/05 09:33:41;;;;;;;51.28;48.70;;;;;;;;;;5042064;28;20049;-64
2023/09/05 09:36:11;;;;;;;49.80;47.30;;;;;;;;;;5039382;28;20041;-65
2023/09/05 09:38:38;;;;;;;53.38;50.70;;;;;;;;;;5022939;28;20219;-65
2023/09/05 09:41:06;;;;;;;55.40;52.58;;;;;;;;;;5040363;28;20041;-65
2023/09/05 09:43:34;;;;;;;50.90;48.28;;;;;;;;;;5038254;28;20043;-66
2023/09/05 09:46:01;;;;;;;38.30;36.25;;;;;;;;;;5038662;28;20133;-64
2023/09/05 09:48:29;;;;;;;34.60;32.70;;;;;;;;;;5039255;28;20029;-65
2023/09/05 09:50:56;;;;;;;51.15;48.55;;;;;;;;;;5038814;28;20036;-72
2023/09/05 09:53:30;;;;;;;34.67;32.88;;;;;;;;;;5042606;28;20080;-72
2023/09/05 09:55:57;;;;;;;29.27;27.77;;;;;;;;;;5041502;28;20036;-65
2023/09/05 09:58:25;;;;;;;26.33;24.92;;;;;;;;;;5038908;28;20162;-66
2023/09/05 10:00:51;;;;;;;30.23;28.63;;;;;;;;;;5040342;28;21220;-72
2023/09/05 10:03:17;;;;;;;24.95;23.65;;;;;;;;;;5037768;28;20029;-66
2023/09/05 10:05:43;;;;;;;24.95;23.60;;;;;;;;;;5053011;28;20627;-65
2023/09/05 10:08:11;;;;;;;28.15;26.65;;;;;;;;;;5038229;28;20037;-65
2023/09/05 10:10:39;;;;;;;28.13;26.63;;;;;;;;;;5037905;28;20029;-65
2023/09/05 10:13:07;;;;;;;22.65;21.38;;;;;;;;;;5039883;28;20064;-65
2023/09/05 10:15:35;;;;;;;18.83;17.83;;;;;;;;;;5035821;28;20516;-65
2023/09/05 10:18:01;;;;;;;21.98;20.77;;;;;;;;;;5039249;28;20507;-73
2023/09/05 10:20:27;;;;;;;28.65;27.15;;;;;;;;;;5037587;28;20045;-66
2023/09/05 10:22:53;;;;;;;29.77;28.17;;;;;;;;;;5037741;28;20033;-72
2023/09/05 10:25:20;;;;;;;24.42;23.13;;;;;;;;;;5038685;28;20033;-72
2023/09/05 10:27:45;;;;;;;24.30;23.00;;;;;;;;;;5038172;28;20037;-72
2023/09/05 10:30:11;;;;;;;20.92;19.77;;;;;;;;;;5039006;28;20476;-73
2023/09/05 10:32:41;;;;;;;21.27;20.05;;;;;;;;;;5039186;28;20032;-65
2023/09/05 10:35:07;;;;;;;22.50;20.92;;;;;;;;;;5039320;28;20025;-73
2023/09/05 10:37:32;;;;;;;22.88;21.67;;;;;;;;;;5036745;28;20067;-65
2023/09/05 10:40:08;;;;;;;24.20;22.90;;;;;;;;;;5038173;28;20056;-66
2023/09/05 10:42:40;;;;;;;21.70;20.50;;;;;;;;;;5039155;28;20029;-66
2023/09/05 10:45:15;;;;;;;22.70;21.50;;;;;;;;;;5037746;28;20025;-65
2023/09/05 10:47:40;;;;;;;22.85;21.65;;;;;;;;;;5038794;28;20112;-73
2023/09/05 10:50:08;;;;;;;22.80;21.58;;;;;;;;;;5039634;28;20995;-73
2023/09/05 10:52:34;;;;;;;21.52;20.35;;;;;;;;;;5024091;28;20183;-72
2023/09/05 10:55:39;;;;;;;21.55;20.38;;;;;;;;;;5037940;28;20384;-73
2023/09/05 10:58:38;;;;;;;22.20;21.00;;;;;;;;;;5036709;28;20729;-73
2023/09/05 11:01:34;;;;;;;22.15;20.95;;;;;;;;;;5037934;28;20103;-64
2023/09/05 11:04:07;;;;;;;25.50;24.15;;;;;;;;;;5024642;28;20071;-64
2023/09/05 11:06:42;;;;;;;20.20;19.10;;;;;;;;;;5039797;28;20127;-63
2023/09/05 11:09:08;;;;;;;20.50;19.40;;;;;;;;;;5038644;28;20029;-73
2023/09/05 11:11:37;;;;;;;21.48;20.27;;;;;;;;;;5021296;28;20419;-64
2023/09/05 11:14:09;;;;;;;21.92;20.73;;;;;;;;;;5034869;28;20045;-64
2023/09/05 11:16:51;;;;;;;23.45;22.17;;;;;;;;;;5036887;28;20208;-73
2023/09/05 11:19:42;;;;;;;20.65;19.45;;;;;;;;;;5037219;28;20033;-63
2023/09/05 11:22:10;;;;;;;23.40;22.17;;;;;;;;;;5036566;28;20044;-63
2023/09/05 11:24:37;;;;;;;21.25;20.13;;;;;;;;;;5038695;28;20167;-73
2023/09/05 11:27:06;;;;;;;21.75;20.55;;;;;;;;;;5023935;28;20029;-72
2023/09/05 11:29:33;;;;;;;23.05;21.85;;;;;;;;;;5037637;28;20208;-65
2023/09/05 11:31:59;;;;;;;21.13;19.92;;;;;;;;;;5035759;28;20041;-64
2023/09/05 11:34:25;;;;;;;26.83;25.42;;;;;;;;;;5022698;28;20160;-64
2023/09/05 11:36:51;;;;;;;44.88;42.58;;;;;;;;;;5020609;28;20376;-72
2023/09/05 11:39:17;;;;;;;36.65;34.70;;;;;;;;;;5039451;28;20041;-65
2023/09/05 11:41:43;;;;;;;56.67;53.78;;;;;;;;;;5039751;28;20029;-73
2023/09/05 11:44:09;;;;;;;44.97;42.70;;;;;;;;;;5036167;28;20036;-65
2023/09/05 11:46:40;;;;;;;39.55;37.50;;;;;;;;;;5040289;28;20452;-64
2023/09/05 11:49:06;;;;;;;34.97;33.17;;;;;;;;;;5038958;28;20041;-65
2023/09/05 11:51:31;;;;;;;48.70;46.15;;;;;;;;;;5023654;28;20072;-72
2023/09/05 11:53:57;;;;;;;42.88;40.70;;;;;;;;;;5018514;28;20068;-74
2023/09/05 11:56:23;;;;;;;77.68;73.82;;;;;;;;;;5021578;28;20033;-73
2023/09/05 11:58:48;;;;;;;72.43;68.78;;;;;;;;;;5039558;28;20121;-64
2023/09/05 12:01:25;;;;;;;71.68;67.07;;;;;;;;;;5024084;28;20037;-65
2023/09/05 12:03:50;;;;;;;67.57;64.20;;;;;;;;;;5036078;28;20037;-65
2023/09/05 12:06:17;;;;;;;53.92;51.22;;;;;;;;;;5034912;28;20071;-65
2023/09/05 12:08:42;;;;;;;84.40;80.22;;;;;;;;;;5040252;28;20111;-65
2023/09/05 12:11:08;;;;;;;96.03;91.28;;;;;;;;;;5039632;28;20476;-72
2023/09/05 12:13:38;;;;;;;109.65;104.25;;;;;;;;;;5022456;28;20076;-72
2023/09/05 12:16:06;;;;;;;134.52;127.93;;;;;;;;;;5040165;28;20076;-73
2023/09/05 12:18:31;;;;;;;141.32;134.35;;;;;;;;;;5035668;28;20052;-65
2023/09/05 12:21:00;;;;;;;104.97;99.80;;;;;;;;;;5037311;28;20037;-67
2023/09/05 12:23:26;;;;;;;164.45;156.43;;;;;;;;;;5022629;28;20036;-64
2023/09/05 12:25:54;;;;;;;152.73;145.18;;;;;;;;;;5036053;28;20036;-72
2023/09/05 12:28:21;;;;;;;131.77;125.30;;;;;;;;;;5018437;28;20107;-65
2023/09/05 12:30:50;;;;;;;137.73;130.95;;;;;;;;;;5036080;28;20070;-73
2023/09/05 12:33:17;;;;;;;162.77;154.85;;;;;;;;;;5032961;28;20040;-64
2023/09/05 12:35:43;;;;;;;130.57;124.15;;;;;;;;;;5034143;28;20064;-67
2023/09/05 12:38:12;;;;;;;153.52;145.95;;;;;;;;;;5032540;28;20039;-73
2023/09/05 12:40:38;;;;;;;130.02;123.63;;;;;;;;;;5022135;28;20029;-64
2023/09/05 12:43:04;;;;;;;122.95;116.90;;;;;;;;;;5038951;28;20366;-65
2023/09/05 12:45:32;;;;;;;120.82;114.85;;;;;;;;;;5039174;28;20040;-66
2023/09/05 12:47:58;;;;;;;125.00;118.85;;;;;;;;;;5037921;28;20025;-66
2023/09/05 12:50:29;;;;;;;140.25;133.23;;;;;;;;;;5035654;28;20090;-66
2023/09/05 12:53:00;;;;;;;146.10;138.93;;;;;;;;;;5037496;28;20098;-65
2023/09/05 12:55:27;;;;;;;111.82;106.32;;;;;;;;;;5040905;28;20047;-65
2023/09/05 12:57:53;;;;;;;127.68;121.35;;;;;;;;;;5039917;28;20076;-74
2023/09/05 13:00:19;;;;;;;117.18;111.43;;;;;;;;;;5034355;28;20096;-66
2023/09/05 13:02:44;;;;;;;100.75;95.78;;;;;;;;;;5028534;28;20040;-75
2023/09/05 13:05:10;;;;;;;90.88;86.30;;;;;;;;;;5041386;28;20364;-66
2023/09/05 13:07:36;;;;;;;85.32;81.10;;;;;;;;;;5022655;28;20125;-66
2023/09/05 13:10:02;;;;;;;81.45;77.40;;;;;;;;;;5036676;28;20452;-74
2023/09/05 13:12:28;;;;;;;125.03;118.75;;;;;;;;;;5040480;28;20048;-66
2023/09/05 13:14:54;;;;;;;123.03;116.97;;;;;;;;;;5039968;28;20029;-75
2023/09/05 13:17:20;;;;;;;91.07;86.45;;;;;;;;;;5039149;28;20105;-75
2023/09/05 13:19:46;;;;;;;74.60;70.90;;;;;;;;;;5039700;28;20041;-74
2023/09/05 13:22:12;;;;;;;74.13;70.43;;;;;;;;;;5038158;28;20029;-72
2023/09/05 13:24:43;;;;;;;70.00;66.53;;;;;;;;;;5022152;28;20017;-67
2023/09/05 13:27:08;;;;;;;115.32;109.65;;;;;;;;;;5039919;28;20099;-66
2023/09/05 13:29:34;;;;;;;77.47;73.63;;;;;;;;;;5039412;28;20664;-74
2023/09/05 13:32:00;;;;;;;99.78;94.88;;;;;;;;;;5039497;28;20044;-74
2023/09/05 13:34:26;;;;;;;79.47;75.55;;;;;;;;;;5041205;28;20040;-66
2023/09/05 13:36:52;;;;;;;71.18;67.63;;;;;;;;;;5036268;28;20065;-65
2023/09/05 13:39:17;;;;;;;76.40;72.63;;;;;;;;;;5025280;28;20067;-64
2023/09/05 13:41:43;;;;;;;66.88;63.55;;;;;;;;;;5038239;28;20044;-66
2023/09/05 13:44:08;;;;;;;59.13;56.17;;;;;;;;;;5037607;28;20461;-67
2023/09/05 13:46:36;;;;;;;66.88;63.58;;;;;;;;;;5039433;28;20029;-73
2023/09/05 13:49:01;;;;;;;66.82;63.47;;;;;;;;;;5022527;28;20053;-66
2023/09/05 13:51:29;;;;;;;65.07;61.83;;;;;;;;;;5035425;28;20043;-74
2023/09/05 13:53:55;;;;;;;65.68;62.38;;;;;;;;;;5038790;28;20045;-73
2023/09/05 13:56:22;;;;;;;62.65;59.55;;;;;;;;;;5025173;28;20083;-66
2023/09/05 13:58:47;;;;;;;59.15;56.17;;;;;;;;;;5039616;28;20045;-67
2023/09/05 14:01:13;;;;;;;61.47;58.38;;;;;;;;;;5033112;28;20404;-74
2023/09/05 14:03:38;;;;;;;60.88;57.78;;;;;;;;;;5036650;28;20690;-75
2023/09/05 14:06:04;;;;;;;65.47;62.20;;;;;;;;;;5038250;28;20055;-67
2023/09/05 14:08:29;;;;;;;63.80;60.60;;;;;;;;;;5042518;28;20037;-73
2023/09/05 14:10:55;;;;;;;60.13;57.13;;;;;;;;;;5041154;28;20041;-74